createdAt,value
2022-11-29T00:05:22.225Z,7.79
2022-11-29T00:11:11.898Z,7.80
2022-11-29T00:17:02.646Z,7.79
2022-11-29T00:22:50.659Z,7.73
2022-11-29T00:28:37.518Z,7.79
2022-11-29T00:34:24.386Z,7.81
2022-11-29T00:40:11.658Z,8.05
2022-11-29T00:45:58.519Z,8.19
2022-11-29T00:51:46.386Z,8.17
2022-11-29T00:57:33.096Z,8.29
2022-11-29T01:03:20.550Z,8.38
2022-11-29T01:09:07.176Z,8.51
2022-11-29T01:14:54.079Z,8.52
2022-11-29T01:20:40.801Z,8.58
2022-11-29T01:26:45.084Z,8.74
2022-11-29T01:33:08.547Z,8.86
2022-11-29T01:39:03.151Z,8.88
2022-11-29T01:44:49.954Z,8.92
2022-11-29T01:50:46.836Z,8.82
2022-11-29T01:56:36.987Z,8.74
2022-11-29T02:02:47.169Z,8.67
2022-11-29T02:08:40.290Z,8.71
2022-11-29T02:14:35.935Z,8.79
2022-11-29T02:20:35.004Z,8.82
2022-11-29T02:26:43.754Z,8.85
2022-11-29T02:32:52.014Z,8.94
2022-11-29T02:39:06.674Z,8.88
2022-11-29T02:45:37.264Z,8.93
2022-11-29T02:51:47.488Z,8.90
2022-11-29T02:57:58.967Z,8.98
2022-11-29T03:04:04.458Z,9.01
2022-11-29T03:10:04.947Z,9.00
2022-11-29T03:16:02.117Z,9.09
2022-11-29T03:22:18.727Z,9.07
2022-11-29T03:28:29.023Z,8.96
2022-11-29T03:34:57.652Z,8.93
2022-11-29T03:41:16.218Z,8.88
2022-11-29T03:47:12.473Z,8.58
2022-11-29T03:53:22.863Z,8.61
2022-11-29T03:59:19.930Z,8.47
2022-11-29T04:05:19.783Z,8.11
2022-11-29T04:12:00.431Z,8.43
2022-11-29T04:18:32.289Z,8.38
2022-11-29T04:24:35.054Z,8.06
2022-11-29T04:30:23.043Z,8.06
2022-11-29T04:36:25.858Z,7.94
2022-11-29T04:42:42.967Z,7.93
2022-11-29T04:49:27.033Z,8.05
2022-11-29T04:55:29.247Z,7.95
2022-11-29T05:01:36.387Z,8.17
2022-11-29T05:07:39.709Z,8.50
2022-11-29T05:13:48.136Z,8.33
2022-11-29T05:19:52.990Z,8.38
2022-11-29T05:26:09.293Z,8.33
2022-11-29T05:32:20.246Z,7.99
2022-11-29T05:38:36.906Z,8.05
2022-11-29T05:44:35.672Z,7.92
2022-11-29T05:50:33.311Z,7.80
2022-11-29T05:56:40.528Z,7.47
2022-11-29T06:02:27.317Z,7.83
2022-11-29T06:08:29.614Z,7.92
2022-11-29T06:15:21.558Z,7.84
2022-11-29T06:21:14.826Z,7.91
2022-11-29T06:27:35.358Z,7.91
2022-11-29T06:33:34.056Z,7.84
2022-11-29T06:39:24.284Z,8.05
2022-11-29T06:45:14.003Z,7.79
2022-11-29T06:51:10.327Z,7.91
2022-11-29T06:57:12.392Z,8.04
2022-11-29T07:03:11.831Z,7.60
2022-11-29T07:09:13.345Z,7.46
2022-11-29T07:15:03.642Z,7.22
2022-11-29T07:21:13.586Z,7.74
2022-11-29T07:27:21.556Z,8.18
2022-11-29T07:33:17.057Z,7.84
2022-11-29T07:39:16.180Z,7.95
2022-11-29T07:45:26.319Z,7.64
2022-11-29T07:51:14.361Z,8.11
2022-11-29T07:57:01.099Z,8.29
2022-11-29T08:02:50.196Z,7.95
2022-11-29T08:08:42.368Z,8.04
2022-11-29T08:14:33.866Z,7.76
2022-11-29T08:20:22.367Z,7.48
2022-11-29T08:26:11.337Z,7.41
2022-11-29T08:32:03.367Z,7.64
2022-11-29T08:37:51.559Z,7.92
2022-11-29T08:43:40.662Z,7.87
2022-11-29T08:49:27.395Z,8.25
2022-11-29T08:55:14.311Z,7.62
2022-11-29T09:01:01.532Z,8.06
2022-11-29T09:06:51.287Z,8.18
2022-11-29T09:12:39.620Z,7.82
2022-11-29T09:18:28.926Z,7.69
2022-11-29T09:24:16.224Z,7.76
2022-11-29T09:30:03.498Z,7.59
2022-11-29T09:35:50.249Z,7.55
2022-11-29T09:41:52.533Z,7.52
2022-11-29T09:47:58.042Z,7.51
2022-11-29T09:54:15.961Z,7.76
2022-11-29T10:00:14.224Z,7.54
2022-11-29T10:06:17.316Z,7.91
2022-11-29T10:12:20.443Z,7.85
2022-11-29T10:18:20.972Z,7.76
2022-11-29T10:24:15.657Z,7.85
2022-11-29T10:30:04.805Z,8.00
2022-11-29T10:35:58.828Z,8.05
2022-11-29T10:41:46.287Z,8.24
2022-11-29T10:47:36.340Z,8.08
2022-11-29T10:53:31.261Z,8.28
2022-11-29T10:59:26.863Z,7.88
2022-11-29T11:05:19.426Z,8.37
2022-11-29T11:11:08.016Z,8.31
2022-11-29T11:16:55.424Z,8.36
2022-11-29T11:22:42.222Z,8.35
2022-11-29T11:28:41.509Z,8.40
2022-11-29T11:34:38.581Z,8.29
2022-11-29T11:40:31.564Z,8.42
2022-11-29T11:46:19.682Z,8.19
2022-11-29T11:52:07.388Z,8.00
2022-11-29T11:58:10.384Z,8.28
2022-11-29T12:04:07.940Z,8.24
2022-11-29T12:10:06.681Z,7.99
2022-11-29T12:15:57.011Z,7.89
2022-11-29T12:22:36.071Z,8.31
2022-11-29T12:28:41.448Z,8.82
2022-11-29T12:35:13.648Z,8.81
2022-11-29T12:41:22.021Z,8.11
2022-11-29T12:47:51.521Z,8.16
2022-11-29T12:54:31.154Z,8.35
2022-11-29T13:00:21.374Z,8.67
2022-11-29T13:06:36.760Z,8.84
2022-11-29T13:12:54.647Z,8.99
2022-11-29T13:18:55.616Z,8.75
2022-11-29T13:25:03.704Z,8.69
2022-11-29T13:30:59.469Z,8.85
2022-11-29T13:37:24.065Z,8.73
2022-11-29T13:43:35.799Z,8.54
2022-11-29T13:49:43.869Z,8.82
2022-11-29T13:55:34.296Z,8.51
2022-11-29T14:01:22.482Z,8.82
2022-11-29T14:07:13.492Z,8.66
2022-11-29T14:13:03.942Z,8.38
2022-11-29T14:19:06.071Z,8.42
2022-11-29T14:25:01.559Z,8.68
2022-11-29T14:30:57.191Z,8.43
2022-11-29T14:36:59.385Z,8.04
2022-11-29T14:42:50.953Z,8.39
2022-11-29T14:48:38.372Z,8.35
2022-11-29T14:54:25.159Z,8.45
2022-11-29T15:00:13.928Z,8.44
2022-11-29T15:06:13.828Z,8.46
2022-11-29T15:12:14.951Z,8.24
2022-11-29T15:18:05.562Z,8.16
2022-11-29T15:23:59.787Z,8.49
2022-11-29T15:29:49.373Z,8.60
2022-11-29T15:35:37.219Z,8.71
2022-11-29T15:41:29.729Z,8.64
2022-11-29T15:47:23.688Z,8.59
2022-11-29T15:53:19.420Z,8.58
2022-11-29T15:59:13.899Z,8.54
2022-11-29T16:05:28.160Z,8.53
2022-11-29T16:11:25.929Z,8.65
2022-11-29T16:17:18.621Z,8.92
2022-11-29T16:23:13.289Z,8.79
2022-11-29T16:29:00.569Z,8.74
2022-11-29T16:34:50.684Z,8.66
2022-11-29T16:40:40.451Z,8.55
2022-11-29T16:46:37.214Z,8.67
2022-11-29T16:52:28.002Z,8.55
2022-11-29T16:58:15.784Z,8.58
2022-11-29T17:04:02.786Z,8.82
2022-11-29T17:09:50.125Z,8.69
2022-11-29T17:15:38.916Z,8.79
2022-11-29T17:21:29.052Z,8.84
2022-11-29T17:27:15.943Z,8.87
2022-11-29T17:33:02.589Z,8.88
2022-11-29T17:38:52.868Z,8.87
2022-11-29T17:44:39.661Z,8.94
2022-11-29T17:50:26.340Z,8.52
2022-11-29T17:56:15.399Z,8.54
2022-11-29T18:02:03.789Z,8.59
2022-11-29T18:07:59.393Z,8.40
2022-11-29T18:13:47.445Z,8.56
2022-11-29T18:19:35.431Z,8.59
2022-11-29T18:25:39.836Z,8.81
2022-11-29T18:31:31.271Z,9.07
2022-11-29T18:37:46.186Z,9.15
2022-11-29T18:43:27.841Z,9.15
2022-11-29T18:49:17.216Z,9.07
2022-11-29T18:55:04.130Z,8.97
2022-11-29T19:00:53.491Z,8.93
2022-11-29T19:06:41.391Z,8.93
2022-11-29T19:12:28.853Z,8.93
2022-11-29T19:18:17.058Z,8.95
2022-11-29T19:24:08.032Z,8.97
2022-11-29T19:29:55.565Z,8.86
2022-11-29T19:35:43.309Z,8.78
2022-11-29T19:41:35.210Z,8.85
2022-11-29T19:47:22.305Z,8.57
2022-11-29T19:53:10.378Z,8.63
2022-11-29T19:59:03.034Z,8.51
2022-11-29T20:04:50.452Z,8.69
2022-11-29T20:10:37.272Z,8.81
2022-11-29T20:16:24.610Z,8.87
2022-11-29T20:22:11.316Z,8.97
2022-11-29T20:27:58.398Z,8.93
2022-11-29T20:33:46.662Z,8.83
2022-11-29T20:39:58.183Z,8.83
2022-11-29T20:45:47.114Z,8.84
2022-11-29T20:51:42.737Z,9.11
2022-11-29T20:57:29.406Z,9.19
2022-11-29T21:03:18.806Z,9.21
2022-11-29T21:09:09.929Z,9.23
2022-11-29T21:15:08.941Z,9.36
2022-11-29T21:21:17.340Z,9.28
2022-11-29T21:33:10.869Z,9.21
2022-11-29T21:39:03.591Z,9.16
2022-11-29T21:44:51.766Z,9.19
2022-11-29T21:50:38.487Z,9.28
2022-11-29T21:56:25.434Z,9.25
2022-11-29T22:02:13.178Z,9.39
2022-11-29T22:08:28.553Z,9.33
2022-11-29T22:14:22.440Z,9.37
2022-11-29T22:20:20.519Z,9.19
2022-11-29T22:26:08.118Z,9.28
2022-11-29T22:31:56.322Z,9.11
2022-11-29T22:37:43.024Z,9.15
2022-11-29T22:43:39.333Z,9.24
2022-11-29T22:49:26.218Z,9.01
2022-11-29T22:55:16.338Z,9.11
2022-11-29T23:01:15.699Z,9.03
2022-11-29T23:07:07.867Z,9.06
2022-11-29T23:12:55.595Z,8.98
2022-11-29T23:18:43.229Z,9.04
2022-11-29T23:24:29.990Z,9.12
2022-11-29T23:30:16.973Z,9.01
2022-11-29T23:36:06.690Z,9.01
2022-11-29T23:41:54.834Z,8.68
2022-11-29T23:47:42.061Z,8.80
2022-11-29T23:53:31.398Z,8.62
2022-11-29T23:59:18.278Z,8.42
